createdAt,value
2023-01-08T00:00:33.584Z,2.85
2023-01-08T00:03:07.454Z,3.08
2023-01-08T00:05:41.533Z,2.42
2023-01-08T00:08:17.262Z,2.80
2023-01-08T00:10:55.636Z,2.97
2023-01-08T00:13:29.929Z,2.47
2023-01-08T00:16:04.691Z,2.03
2023-01-08T00:18:38.910Z,2.50
2023-01-08T00:21:13.060Z,2.45
2023-01-08T00:23:48.220Z,2.75
2023-01-08T00:26:22.044Z,2.28
2023-01-08T00:28:55.914Z,2.30
2023-01-08T00:31:29.464Z,2.25
2023-01-08T00:34:03.227Z,2.67
2023-01-08T00:36:36.850Z,2.55
2023-01-08T00:39:11.993Z,2.67
2023-01-08T00:41:45.840Z,1.90
2023-01-08T00:44:19.943Z,2.45
2023-01-08T00:46:53.689Z,2.80
2023-01-08T00:49:27.634Z,2.35
2023-01-08T00:52:01.266Z,2.88
2023-01-08T00:54:36.382Z,2.30
2023-01-08T00:57:09.979Z,2.30
2023-01-08T00:59:43.773Z,2.25
2023-01-08T01:02:17.489Z,2.58
2023-01-08T01:04:51.993Z,2.45
2023-01-08T01:07:25.680Z,2.30
2023-01-08T01:10:01.058Z,2.55
2023-01-08T01:12:34.828Z,2.65
2023-01-08T01:15:12.044Z,2.63
2023-01-08T01:17:46.979Z,2.28
2023-01-08T01:20:21.102Z,2.75
2023-01-08T01:22:54.708Z,2.58
2023-01-08T01:25:29.917Z,2.50
2023-01-08T01:28:03.447Z,2.60
2023-01-08T01:30:37.182Z,2.65
2023-01-08T01:33:10.763Z,2.33
2023-01-08T01:35:44.400Z,2.60
2023-01-08T01:38:18.215Z,2.70
2023-01-08T01:40:53.301Z,2.65
2023-01-08T01:43:36.136Z,2.42
2023-01-08T01:46:24.782Z,2.75
2023-01-08T01:49:02.447Z,2.63
2023-01-08T01:51:37.460Z,2.85
2023-01-08T01:54:14.479Z,3.20
2023-01-08T01:56:51.511Z,2.83
2023-01-08T01:59:25.577Z,2.70
2023-01-08T02:02:01.517Z,2.67
2023-01-08T02:04:36.077Z,2.83
2023-01-08T02:07:17.497Z,2.42
2023-01-08T02:09:55.633Z,2.60
2023-01-08T02:12:35.225Z,2.53
2023-01-08T02:15:17.382Z,2.40
2023-01-08T02:17:56.142Z,2.28
2023-01-08T02:20:34.647Z,2.47
2023-01-08T02:23:24.367Z,2.45
2023-01-08T02:26:20.076Z,2.10
2023-01-08T02:28:59.182Z,2.15
2023-01-08T02:34:07.193Z,2.25
2023-01-08T02:36:43.009Z,2.30
2023-01-08T02:39:31.068Z,2.25
2023-01-08T02:42:12.219Z,2.10
2023-01-08T02:44:54.414Z,2.63
2023-01-08T02:47:33.682Z,2.25
2023-01-08T02:50:15.615Z,2.35
2023-01-08T02:52:57.522Z,2.33
2023-01-08T02:55:33.715Z,2.50
2023-01-08T02:58:09.067Z,2.00
2023-01-08T03:00:45.299Z,2.70
2023-01-08T03:03:23.432Z,2.40
2023-01-08T03:06:00.289Z,2.97
2023-01-08T03:08:37.059Z,1.92
2023-01-08T03:11:14.357Z,2.40
2023-01-08T03:13:55.684Z,2.35
2023-01-08T03:16:34.574Z,2.63
2023-01-08T03:19:13.871Z,2.40
2023-01-08T03:21:48.985Z,2.42
2023-01-08T03:24:26.929Z,2.10
2023-01-08T03:27:04.355Z,2.17
2023-01-08T03:29:41.420Z,2.42
2023-01-08T03:32:17.432Z,2.42
2023-01-08T03:34:54.327Z,2.00
2023-01-08T03:37:31.595Z,2.20
2023-01-08T03:40:09.158Z,2.03
2023-01-08T03:42:43.357Z,2.45
2023-01-08T03:45:18.512Z,2.65
2023-01-08T03:47:53.409Z,2.25
2023-01-08T03:50:29.465Z,2.60
2023-01-08T03:53:03.213Z,2.53
2023-01-08T03:55:36.917Z,2.65
2023-01-08T03:58:10.756Z,2.70
2023-01-08T04:00:45.678Z,2.50
2023-01-08T04:03:19.621Z,2.60
2023-01-08T04:05:53.297Z,2.60
2023-01-08T04:08:27.253Z,2.85
2023-01-08T04:11:00.815Z,2.50
2023-01-08T04:13:34.639Z,2.35
2023-01-08T04:16:09.945Z,2.63
2023-01-08T04:18:43.841Z,2.47
2023-01-08T04:21:17.681Z,2.47
2023-01-08T04:23:51.632Z,2.83
2023-01-08T04:26:25.318Z,2.60
2023-01-08T04:29:07.389Z,2.70
2023-01-08T04:32:04.192Z,2.60
2023-01-08T04:34:38.198Z,2.80
2023-01-08T04:37:11.749Z,2.65
2023-01-08T04:39:45.654Z,2.55
2023-01-08T04:42:19.368Z,2.40
2023-01-08T04:44:53.127Z,2.80
2023-01-08T04:47:28.023Z,2.42
2023-01-08T04:50:01.800Z,2.17
2023-01-08T04:52:35.529Z,2.75
2023-01-08T04:55:09.633Z,2.67
2023-01-08T04:57:43.224Z,2.45
2023-01-08T05:00:17.926Z,2.40
2023-01-08T05:02:52.926Z,2.22
2023-01-08T05:05:26.843Z,2.70
2023-01-08T05:08:00.551Z,2.15
2023-01-08T05:10:34.506Z,2.25
2023-01-08T05:13:08.083Z,2.40
2023-01-08T05:15:41.861Z,2.38
2023-01-08T05:18:16.947Z,2.53
2023-01-08T05:20:51.016Z,2.80
2023-01-08T05:23:24.740Z,2.45
2023-01-08T05:25:59.044Z,2.70
2023-01-08T05:28:32.945Z,2.90
2023-01-08T05:31:06.822Z,3.03
2023-01-08T05:33:42.399Z,3.13
2023-01-08T05:36:16.132Z,3.03
2023-01-08T05:38:49.697Z,3.13
2023-01-08T05:41:23.923Z,2.90
2023-01-08T05:43:57.475Z,3.42
2023-01-08T05:46:31.318Z,2.88
2023-01-08T05:49:06.311Z,3.00
2023-01-08T05:51:40.079Z,2.88
2023-01-08T05:54:13.611Z,3.00
2023-01-08T05:56:47.465Z,3.10
2023-01-08T05:59:20.999Z,2.80
2023-01-08T06:01:54.828Z,2.90
2023-01-08T06:04:29.772Z,2.55
2023-01-08T06:07:03.575Z,3.25
2023-01-08T06:09:37.119Z,2.22
2023-01-08T06:12:10.948Z,2.70
2023-01-08T06:14:44.573Z,2.33
2023-01-08T06:17:18.388Z,2.55
2023-01-08T06:19:53.358Z,2.13
2023-01-08T06:22:27.448Z,2.20
2023-01-08T06:25:01.227Z,2.28
2023-01-08T06:27:35.151Z,2.20
2023-01-08T06:30:09.967Z,2.47
2023-01-08T06:32:43.960Z,2.20
2023-01-08T06:35:18.826Z,1.80
2023-01-08T06:37:52.602Z,2.15
2023-01-08T06:40:26.210Z,2.17
2023-01-08T06:43:02.653Z,2.30
2023-01-08T06:45:36.203Z,2.05
2023-01-08T06:48:09.912Z,2.38
2023-01-08T06:50:44.741Z,2.40
2023-01-08T06:53:18.527Z,2.25
2023-01-08T06:55:56.896Z,2.38
2023-01-08T06:58:30.963Z,2.90
2023-01-08T07:01:04.637Z,2.03
2023-01-08T07:03:38.379Z,2.30
2023-01-08T07:06:17.088Z,2.15
2023-01-08T07:11:24.371Z,2.40
2023-01-08T07:13:58.198Z,2.53
2023-01-08T07:16:31.932Z,2.22
2023-01-08T07:19:05.834Z,2.58
2023-01-08T07:21:40.844Z,2.42
2023-01-08T07:24:14.636Z,2.45
2023-01-08T07:26:48.286Z,2.50
2023-01-08T07:29:22.194Z,2.47
2023-01-08T07:31:55.964Z,3.05
2023-01-08T07:34:29.764Z,2.30
2023-01-08T07:37:05.249Z,2.42
2023-01-08T07:39:39.049Z,2.67
2023-01-08T07:42:12.660Z,2.28
2023-01-08T07:44:46.547Z,2.45
2023-01-08T07:47:20.121Z,2.35
2023-01-08T07:49:54.124Z,2.55
2023-01-08T07:52:29.121Z,2.63
2023-01-08T07:55:02.921Z,2.92
2023-01-08T07:57:36.760Z,2.25
2023-01-08T08:00:12.039Z,2.33
2023-01-08T08:02:46.272Z,2.60
2023-01-08T08:05:20.216Z,2.20
2023-01-08T08:07:55.430Z,2.72
2023-01-08T08:10:29.296Z,2.70
2023-01-08T08:13:03.175Z,2.70
2023-01-08T08:15:38.715Z,2.83
2023-01-08T08:18:12.776Z,2.33
2023-01-08T08:20:47.257Z,2.70
2023-01-08T08:23:22.256Z,2.17
2023-01-08T08:25:56.015Z,2.53
2023-01-08T08:28:29.709Z,2.92
2023-01-08T08:31:03.586Z,2.47
2023-01-08T08:33:37.216Z,3.05
2023-01-08T08:36:11.170Z,2.72
2023-01-08T08:38:46.300Z,2.47
2023-01-08T08:41:20.065Z,2.65
2023-01-08T08:43:53.789Z,2.70
2023-01-08T08:46:27.894Z,2.80
2023-01-08T08:49:01.586Z,2.90
2023-01-08T08:51:35.473Z,2.90
2023-01-08T08:54:11.177Z,2.83
2023-01-08T08:56:44.985Z,2.58
2023-01-08T08:59:18.621Z,3.10
2023-01-08T09:01:52.551Z,2.92
2023-01-08T09:04:26.141Z,2.83
2023-01-08T09:07:00.323Z,2.80
2023-01-08T09:09:35.354Z,2.85
2023-01-08T09:12:10.257Z,3.20
2023-01-08T09:14:43.876Z,3.00
2023-01-08T09:17:17.829Z,3.33
2023-01-08T09:19:51.373Z,2.75
2023-01-08T09:22:25.307Z,2.78
2023-01-08T09:25:00.255Z,3.17
2023-01-08T09:27:34.282Z,3.25
2023-01-08T09:30:09.297Z,3.10
2023-01-08T09:32:43.125Z,3.10
2023-01-08T09:35:16.995Z,3.00
2023-01-08T09:37:52.177Z,2.92
2023-01-08T09:40:32.371Z,2.63
2023-01-08T09:43:06.978Z,3.30
2023-01-08T09:45:41.823Z,3.03
2023-01-08T09:48:19.285Z,3.15
2023-01-08T09:50:53.144Z,3.13
2023-01-08T09:53:27.238Z,3.08
2023-01-08T09:56:10.042Z,2.80
2023-01-08T09:58:48.946Z,2.53
2023-01-08T10:01:25.305Z,3.00
2023-01-08T10:04:05.311Z,2.45
2023-01-08T10:06:38.916Z,2.72
2023-01-08T10:09:15.453Z,2.55
2023-01-08T10:11:52.162Z,2.67
2023-01-08T10:14:29.088Z,2.20
2023-01-08T10:17:11.555Z,2.58
2023-01-08T10:19:46.313Z,2.40
2023-01-08T10:22:22.484Z,2.60
2023-01-08T10:25:06.236Z,2.10
2023-01-08T10:27:49.671Z,2.33
2023-01-08T10:30:30.340Z,2.67
2023-01-08T10:33:06.720Z,2.90
2023-01-08T10:35:42.875Z,2.75
2023-01-08T10:38:26.982Z,2.60
2023-01-08T10:41:02.966Z,2.50
2023-01-08T10:43:49.168Z,2.20
2023-01-08T10:46:24.980Z,2.67
2023-01-08T10:49:01.565Z,2.33
2023-01-08T10:51:35.471Z,2.05
2023-01-08T10:54:16.683Z,2.20
2023-01-08T10:56:50.482Z,2.08
2023-01-08T10:59:26.505Z,1.90
2023-01-08T11:02:00.844Z,2.00
2023-01-08T11:04:37.291Z,1.88
2023-01-08T11:07:21.356Z,1.63
2023-01-08T11:09:55.870Z,2.08
2023-01-08T11:12:35.782Z,2.17
2023-01-08T11:15:33.058Z,2.15
2023-01-08T11:18:20.626Z,2.42
2023-01-08T11:21:07.210Z,2.90
2023-01-08T11:23:41.228Z,2.40
2023-01-08T11:26:18.822Z,2.40
2023-01-08T11:29:01.432Z,2.38
2023-01-08T11:31:42.593Z,2.85
2023-01-08T11:34:20.772Z,3.25
2023-01-08T11:37:04.243Z,3.67
2023-01-08T11:39:39.589Z,4.50
2023-01-08T11:42:30.951Z,3.67
2023-01-08T11:45:24.674Z,2.90
2023-01-08T11:48:20.215Z,2.83
2023-01-08T11:51:16.581Z,2.65
2023-01-08T11:54:03.445Z,2.92
2023-01-08T11:56:51.062Z,2.72
2023-01-08T11:59:36.461Z,3.08
2023-01-08T12:02:23.936Z,2.63
2023-01-08T12:05:24.856Z,2.65
2023-01-08T12:08:05.295Z,2.58
2023-01-08T12:10:49.997Z,2.45
2023-01-08T12:13:40.786Z,2.70
2023-01-08T12:16:24.992Z,2.40
2023-01-08T12:19:16.373Z,1.85
2023-01-08T12:22:08.807Z,2.00
2023-01-08T12:25:16.130Z,1.65
2023-01-08T12:28:00.500Z,1.75
2023-01-08T12:30:44.171Z,1.40
2023-01-08T12:33:37.297Z,1.30
2023-01-08T12:36:15.422Z,1.30
2023-01-08T12:38:56.873Z,1.60
2023-01-08T12:41:35.296Z,1.52
2023-01-08T12:44:12.482Z,1.45
2023-01-08T12:46:47.006Z,1.48
2023-01-08T12:49:27.077Z,1.80
2023-01-08T12:52:05.837Z,1.50
2023-01-08T12:54:50.359Z,1.55
2023-01-08T12:57:32.948Z,1.98
2023-01-08T13:00:12.078Z,1.83
2023-01-08T13:02:54.353Z,1.90
2023-01-08T13:05:33.639Z,1.77
2023-01-08T13:08:21.993Z,2.30
2023-01-08T13:10:57.884Z,1.90
2023-01-08T13:13:33.313Z,2.22
2023-01-08T13:16:09.015Z,2.75
2023-01-08T13:18:52.887Z,2.25
2023-01-08T13:21:35.789Z,2.17
2023-01-08T13:24:28.831Z,2.60
2023-01-08T13:27:30.354Z,1.88
2023-01-08T13:30:04.447Z,2.55
2023-01-08T13:32:43.873Z,1.73
2023-01-08T13:35:25.067Z,1.90
2023-01-08T13:38:15.996Z,1.75
2023-01-08T13:40:57.431Z,1.73
2023-01-08T13:43:37.632Z,1.80
2023-01-08T13:46:18.068Z,1.60
2023-01-08T13:48:58.212Z,2.47
2023-01-08T13:51:42.957Z,1.50
2023-01-08T13:54:26.548Z,1.80
2023-01-08T13:57:06.754Z,1.80
2023-01-08T13:59:44.132Z,1.70
2023-01-08T14:02:28.306Z,1.50
2023-01-08T14:05:13.655Z,1.77
2023-01-08T14:07:47.473Z,1.35
2023-01-08T14:10:22.506Z,3.03
2023-01-08T14:13:02.176Z,2.17
2023-01-08T14:15:39.866Z,1.80
2023-01-08T14:18:15.328Z,1.70
2023-01-08T14:20:51.659Z,1.90
2023-01-08T14:23:28.338Z,1.40
2023-01-08T14:26:06.445Z,1.50
2023-01-08T14:28:40.257Z,1.67
2023-01-08T14:31:23.162Z,1.42
2023-01-08T14:34:00.099Z,1.48
2023-01-08T14:36:34.037Z,1.35
2023-01-08T14:39:12.441Z,1.55
2023-01-08T14:42:03.510Z,1.67
2023-01-08T14:44:42.256Z,1.52
2023-01-08T14:49:55.228Z,1.25
2023-01-08T14:52:28.970Z,1.77
2023-01-08T14:55:04.673Z,1.33
2023-01-08T14:57:38.403Z,1.42
2023-01-08T15:00:18.855Z,1.38
2023-01-08T15:02:54.072Z,1.27
2023-01-08T15:05:29.923Z,1.40
2023-01-08T15:08:21.424Z,1.58
2023-01-08T15:11:04.392Z,1.52
2023-01-08T15:13:39.029Z,1.40
2023-01-08T15:16:18.182Z,1.70
2023-01-08T15:21:32.030Z,1.35
2023-01-08T15:24:08.333Z,1.30
2023-01-08T15:26:42.988Z,1.50
2023-01-08T15:29:20.371Z,1.88
2023-01-08T15:31:54.389Z,1.30
2023-01-08T15:34:29.464Z,2.90
2023-01-08T15:37:03.254Z,1.38
2023-01-08T15:39:37.232Z,1.88
2023-01-08T15:42:38.058Z,1.77
2023-01-08T15:45:15.395Z,1.45
2023-01-08T15:47:49.227Z,1.70
2023-01-08T15:50:25.706Z,1.73
2023-01-08T15:53:01.067Z,1.75
2023-01-08T15:55:37.769Z,1.55
2023-01-08T15:58:13.096Z,2.55
2023-01-08T16:00:47.551Z,2.53
2023-01-08T16:03:22.776Z,2.33
2023-01-08T16:05:57.915Z,2.30
2023-01-08T16:08:31.579Z,2.72
2023-01-08T16:11:05.278Z,2.05
2023-01-08T16:13:39.226Z,2.13
2023-01-08T16:16:14.984Z,1.90
2023-01-08T16:18:48.931Z,2.60
2023-01-08T16:21:23.906Z,2.13
2023-01-08T16:23:57.717Z,1.73
2023-01-08T16:26:31.299Z,1.73
2023-01-08T16:29:08.156Z,1.88
2023-01-08T16:31:45.803Z,1.85
2023-01-08T16:34:19.627Z,1.60
2023-01-08T16:36:54.605Z,2.20
2023-01-08T16:39:28.707Z,1.80
2023-01-08T16:42:02.318Z,2.13
2023-01-08T16:44:37.558Z,1.77
2023-01-08T16:47:11.093Z,1.83
2023-01-08T16:49:44.841Z,2.40
2023-01-08T16:52:20.129Z,1.90
2023-01-08T16:54:53.905Z,1.70
2023-01-08T16:57:27.507Z,2.30
2023-01-08T17:00:01.264Z,1.80
2023-01-08T17:02:35.233Z,2.08
2023-01-08T17:05:09.634Z,3.13
2023-01-08T17:07:44.583Z,2.30
2023-01-08T17:10:18.530Z,2.00
2023-01-08T17:12:52.385Z,1.50
2023-01-08T17:15:26.727Z,2.53
2023-01-08T17:18:00.336Z,1.77
2023-01-08T17:20:34.212Z,2.38
2023-01-08T17:23:09.171Z,2.55
2023-01-08T17:25:42.946Z,2.42
2023-01-08T17:28:16.645Z,2.33
2023-01-08T17:30:50.340Z,2.67
2023-01-08T17:33:23.850Z,2.60
2023-01-08T17:35:58.181Z,2.47
2023-01-08T17:38:33.117Z,2.58
2023-01-08T17:41:08.593Z,2.10
2023-01-08T17:43:42.493Z,2.35
2023-01-08T17:46:16.257Z,2.28
2023-01-08T17:48:49.859Z,3.13
2023-01-08T17:51:23.662Z,2.55
2023-01-08T17:53:58.670Z,2.40
2023-01-08T17:56:32.418Z,2.00
2023-01-08T17:59:06.141Z,1.83
2023-01-08T18:01:40.091Z,1.60
2023-01-08T18:04:13.878Z,1.55
2023-01-08T18:06:47.811Z,1.42
2023-01-08T18:09:23.103Z,1.65
2023-01-08T18:11:56.891Z,2.05
2023-01-08T18:14:30.445Z,1.63
2023-01-08T18:17:04.603Z,1.30
2023-01-08T18:19:38.220Z,0.90
2023-01-08T18:22:12.064Z,2.03
2023-01-08T18:24:47.164Z,1.33
2023-01-08T18:27:20.979Z,1.42
2023-01-08T18:29:55.088Z,1.42
2023-01-08T18:32:28.905Z,1.40
2023-01-08T18:35:03.753Z,2.60
2023-01-08T18:37:37.723Z,1.70
2023-01-08T18:40:13.747Z,1.60
2023-01-08T18:42:48.512Z,1.20
2023-01-08T18:45:22.133Z,1.13
2023-01-08T18:47:56.027Z,1.33
2023-01-08T18:50:29.665Z,1.65
2023-01-08T18:53:05.883Z,2.13
2023-01-08T18:55:42.700Z,1.52
2023-01-08T18:58:16.667Z,1.60
2023-01-08T19:00:50.217Z,1.10
2023-01-08T19:03:24.253Z,1.35
2023-01-08T19:05:57.720Z,1.50
2023-01-08T19:08:31.715Z,1.13
2023-01-08T19:11:07.182Z,1.35
2023-01-08T19:13:42.656Z,1.02
2023-01-08T19:16:18.406Z,1.33
2023-01-08T19:18:52.318Z,1.20
2023-01-08T19:21:26.531Z,1.58
2023-01-08T19:24:00.424Z,1.20
2023-01-08T19:26:35.281Z,1.42
2023-01-08T19:29:09.055Z,1.65
2023-01-08T19:31:42.606Z,1.48
2023-01-08T19:34:16.409Z,1.58
2023-01-08T19:36:50.029Z,1.33
2023-01-08T19:39:24.065Z,1.48
2023-01-08T19:42:16.648Z,1.40
2023-01-08T19:44:50.437Z,1.45
2023-01-08T19:47:24.823Z,1.33
2023-01-08T19:49:58.573Z,1.50
2023-01-08T19:52:32.147Z,1.55
2023-01-08T19:55:06.480Z,2.00
2023-01-08T19:57:41.489Z,1.92
2023-01-08T20:00:16.229Z,1.45
2023-01-08T20:02:51.314Z,1.58
2023-01-08T20:05:25.182Z,1.70
2023-01-08T20:07:58.674Z,2.10
2023-01-08T20:10:32.958Z,1.70
2023-01-08T20:13:08.010Z,2.03
2023-01-08T20:15:41.790Z,1.60
2023-01-08T20:18:15.365Z,2.00
2023-01-08T20:20:49.249Z,1.90
2023-01-08T20:23:22.774Z,2.10
2023-01-08T20:25:56.573Z,2.25
2023-01-08T20:28:31.487Z,1.63
2023-01-08T20:31:07.381Z,1.75
2023-01-08T20:33:41.566Z,1.77
2023-01-08T20:36:17.249Z,1.55
2023-01-08T20:38:53.232Z,1.60
2023-01-08T20:41:27.650Z,1.80
2023-01-08T20:44:06.646Z,1.65
2023-01-08T20:46:40.801Z,1.60
2023-01-08T20:49:18.338Z,1.70
2023-01-08T20:51:58.550Z,3.05
2023-01-08T20:54:32.670Z,1.80
2023-01-08T20:57:06.506Z,2.10
2023-01-08T20:59:41.508Z,1.60
2023-01-08T21:02:15.431Z,2.00
2023-01-08T21:04:50.240Z,1.58
2023-01-08T21:07:24.075Z,1.52
2023-01-08T21:09:57.732Z,1.40
2023-01-08T21:12:31.735Z,1.73
2023-01-08T21:15:08.622Z,1.80
2023-01-08T21:17:42.644Z,1.80
2023-01-08T21:20:17.253Z,1.95
2023-01-08T21:22:51.201Z,2.25
2023-01-08T21:25:24.758Z,2.05
2023-01-08T21:27:58.563Z,1.92
2023-01-08T21:30:33.537Z,2.10
2023-01-08T21:33:07.399Z,2.13
2023-01-08T21:35:41.038Z,2.35
2023-01-08T21:38:14.952Z,2.42
2023-01-08T21:40:48.731Z,2.13
2023-01-08T21:43:39.747Z,1.90
2023-01-08T21:46:16.227Z,1.88
2023-01-08T21:48:52.073Z,1.90
2023-01-08T21:51:43.208Z,1.90
2023-01-08T21:54:16.963Z,2.00
2023-01-08T21:56:50.537Z,2.10
2023-01-08T21:59:24.328Z,1.75
2023-01-08T22:01:59.235Z,1.80
2023-01-08T22:04:33.300Z,1.67
2023-01-08T22:07:06.945Z,1.70
2023-01-08T22:09:40.931Z,2.00
2023-01-08T22:12:15.922Z,1.98
2023-01-08T22:14:49.708Z,1.65
2023-01-08T22:17:26.303Z,1.95
2023-01-08T22:20:01.344Z,2.03
2023-01-08T22:22:35.061Z,2.05
2023-01-08T22:25:10.045Z,2.35
2023-01-08T22:27:43.751Z,2.45
2023-01-08T22:30:17.987Z,2.47
2023-01-08T22:32:52.931Z,2.05
2023-01-08T22:35:26.783Z,2.03
2023-01-08T22:38:00.469Z,2.05
2023-01-08T22:40:34.137Z,3.45
2023-01-08T22:43:07.838Z,2.35
2023-01-08T22:45:41.693Z,2.50
2023-01-08T22:48:16.664Z,2.40
2023-01-08T22:50:50.878Z,2.65
2023-01-08T22:53:24.508Z,2.17
2023-01-08T22:55:58.300Z,2.40
2023-01-08T22:58:31.864Z,2.20
2023-01-08T23:01:05.931Z,1.90
2023-01-08T23:03:43.147Z,2.58
2023-01-08T23:06:19.753Z,2.40
2023-01-08T23:08:53.490Z,1.58
2023-01-08T23:11:27.989Z,1.70
2023-01-08T23:14:01.799Z,2.20
2023-01-08T23:16:35.852Z,1.83
2023-01-08T23:19:11.083Z,1.83
2023-01-08T23:21:44.845Z,1.83
2023-01-08T23:24:18.625Z,1.92
2023-01-08T23:26:52.358Z,1.77
2023-01-08T23:29:29.391Z,1.77
2023-01-08T23:32:03.360Z,1.55
2023-01-08T23:34:38.271Z,1.70
2023-01-08T23:37:12.090Z,1.92
2023-01-08T23:39:45.635Z,1.85
2023-01-08T23:42:19.458Z,2.22
2023-01-08T23:44:52.978Z,2.35
2023-01-08T23:47:26.763Z,1.88
2023-01-08T23:50:01.687Z,1.88
2023-01-08T23:52:35.757Z,1.75
2023-01-08T23:55:10.108Z,1.80
2023-01-08T23:57:43.997Z,1.83
